createdAt,value
2019-03-04T00:02:43.652Z,11.93
2019-03-04T00:06:49.459Z,11.94
2019-03-04T00:10:55.324Z,11.85
2019-03-04T00:15:00.769Z,12.06
2019-03-04T00:19:06.307Z,11.97
2019-03-04T00:23:11.809Z,11.93
2019-03-04T00:27:17.463Z,11.95
2019-03-04T00:31:22.916Z,11.89
2019-03-04T00:35:28.663Z,11.88
2019-03-04T00:39:34.042Z,11.84
2019-03-04T00:43:39.262Z,11.90
2019-03-04T00:47:44.711Z,11.69
2019-03-04T00:51:50.333Z,11.72
2019-03-04T00:55:55.773Z,11.75
2019-03-04T01:00:01.121Z,11.85
2019-03-04T01:04:06.591Z,11.87
2019-03-04T01:08:12.115Z,11.76
2019-03-04T01:12:18.122Z,11.88
2019-03-04T01:16:23.526Z,12.04
2019-03-04T01:20:28.808Z,12.10
2019-03-04T01:24:34.201Z,12.15
2019-03-04T01:28:39.976Z,12.02
2019-03-04T01:32:45.398Z,12.25
2019-03-04T01:36:50.861Z,12.00
2019-03-04T01:40:56.307Z,12.10
2019-03-04T01:45:01.707Z,12.15
2019-03-04T01:49:07.157Z,12.11
2019-03-04T01:53:12.690Z,12.03
2019-03-04T01:57:18.068Z,12.16
2019-03-04T02:01:23.872Z,12.08
2019-03-04T02:05:32.079Z,12.06
2019-03-04T02:09:37.892Z,11.94
2019-03-04T02:13:43.256Z,11.87
2019-03-04T02:17:49.141Z,11.80
2019-03-04T02:21:54.910Z,11.80
2019-03-04T02:26:24.135Z,11.77
2019-03-04T02:30:30.298Z,11.82
2019-03-04T02:34:35.690Z,11.77
2019-03-04T02:38:41.040Z,11.54
2019-03-04T02:42:46.580Z,11.58
2019-03-04T02:46:51.944Z,11.68
2019-03-04T02:50:57.295Z,11.46
2019-03-04T02:55:02.756Z,11.62
2019-03-04T02:59:08.244Z,11.87
2019-03-04T03:03:13.688Z,11.63
2019-03-04T03:07:19.143Z,11.78
2019-03-04T03:11:24.423Z,11.89
2019-03-04T03:15:29.864Z,12.03
2019-03-04T03:19:35.209Z,12.27
2019-03-04T03:23:41.052Z,12.36
2019-03-04T03:27:46.379Z,12.33
2019-03-04T03:31:59.483Z,12.78
2019-03-04T03:36:04.858Z,12.89
2019-03-04T03:40:12.352Z,12.78
2019-03-04T03:44:17.910Z,12.99
2019-03-04T03:48:23.770Z,12.74
2019-03-04T03:52:29.135Z,12.73
2019-03-04T03:56:34.622Z,12.49
2019-03-04T04:00:40.068Z,12.50
2019-03-04T04:04:45.440Z,12.63
2019-03-04T04:08:50.868Z,12.58
2019-03-04T04:12:56.322Z,12.36
2019-03-04T04:17:02.215Z,12.37
2019-03-04T04:21:07.627Z,12.37
2019-03-04T04:25:13.071Z,12.69
2019-03-04T04:29:18.789Z,12.55
2019-03-04T04:33:24.359Z,12.73
2019-03-04T04:37:30.114Z,12.86
2019-03-04T04:41:35.846Z,12.66
2019-03-04T04:45:41.382Z,12.71
2019-03-04T04:49:47.174Z,12.51
2019-03-04T04:53:56.609Z,12.74
2019-03-04T04:58:02.505Z,12.60
2019-03-04T05:02:08.014Z,12.43
2019-03-04T05:06:13.461Z,12.57
2019-03-04T05:10:19.887Z,12.60
2019-03-04T05:14:25.244Z,12.42
2019-03-04T05:18:30.730Z,12.43
2019-03-04T05:22:35.990Z,12.31
2019-03-04T05:26:41.378Z,12.29
2019-03-04T05:30:46.725Z,12.35
2019-03-04T05:34:52.173Z,12.42
2019-03-04T05:38:57.648Z,12.34
2019-03-04T05:43:03.226Z,12.40
2019-03-04T05:47:08.970Z,12.26
2019-03-04T05:51:14.331Z,12.11
2019-03-04T05:55:19.893Z,11.83
2019-03-04T05:59:25.340Z,8.87
2019-03-04T06:03:30.698Z,7.97
2019-03-04T06:07:40.033Z,7.67
2019-03-04T06:11:45.819Z,7.50
2019-03-04T06:15:51.296Z,7.38
2019-03-04T06:19:56.797Z,7.19
2019-03-04T06:24:02.747Z,7.07
2019-03-04T06:28:08.299Z,6.92
2019-03-04T06:32:14.067Z,7.23
2019-03-04T06:36:19.812Z,7.18
2019-03-04T06:40:25.300Z,7.32
2019-03-04T06:44:30.837Z,7.45
2019-03-04T06:48:36.244Z,7.44
2019-03-04T06:52:42.201Z,7.79
2019-03-04T06:56:57.601Z,7.80
2019-03-04T07:01:21.441Z,7.65
2019-03-04T07:05:53.992Z,7.88
2019-03-04T07:09:59.493Z,7.73
2019-03-04T07:14:05.358Z,7.91
2019-03-04T07:18:10.775Z,8.04
2019-03-04T07:22:16.410Z,7.92
2019-03-04T07:26:21.940Z,7.95
2019-03-04T07:30:27.390Z,8.26
2019-03-04T07:34:33.946Z,8.57
2019-03-04T07:38:59.987Z,8.92
2019-03-04T07:43:05.801Z,8.85
2019-03-04T07:47:12.301Z,8.86
2019-03-04T07:51:18.664Z,8.91
2019-03-04T07:55:23.983Z,8.77
2019-03-04T07:59:29.536Z,8.85
2019-03-04T08:03:34.985Z,8.70
2019-03-04T08:07:49.903Z,8.60
2019-03-04T08:12:47.600Z,8.78
2019-03-04T08:16:53.063Z,8.98
2019-03-04T08:20:58.613Z,9.12
2019-03-04T08:25:04.175Z,9.37
2019-03-04T08:29:09.875Z,9.44
2019-03-04T08:33:15.378Z,9.41
2019-03-04T08:37:20.826Z,9.56
2019-03-04T08:41:26.842Z,9.66
2019-03-04T08:45:32.810Z,9.71
2019-03-04T08:49:38.333Z,9.68
2019-03-04T08:53:44.242Z,9.66
2019-03-04T08:57:49.843Z,9.82
2019-03-04T09:01:55.424Z,10.00
2019-03-04T09:06:00.787Z,9.97
2019-03-04T09:10:13.806Z,9.87
2019-03-04T09:14:19.622Z,9.89
2019-03-04T09:18:25.586Z,10.06
2019-03-04T09:22:31.087Z,9.93
2019-03-04T09:26:36.658Z,9.66
2019-03-04T09:30:42.514Z,9.10
2019-03-04T09:34:48.424Z,8.72
2019-03-04T09:38:54.274Z,8.54
2019-03-04T09:43:00.356Z,8.46
2019-03-04T09:47:06.145Z,8.48
2019-03-04T09:51:11.589Z,8.45
2019-03-04T09:55:17.502Z,8.46
2019-03-04T09:59:22.932Z,8.51
2019-03-04T10:04:18.633Z,8.58
2019-03-04T10:08:46.049Z,8.47
2019-03-04T10:14:03.875Z,8.49
2019-03-04T10:18:49.543Z,8.59
2019-03-04T10:23:32.808Z,8.68
2019-03-04T10:28:12.908Z,8.88
2019-03-04T10:33:23.391Z,8.98
2019-03-04T10:38:49.220Z,9.17
2019-03-04T10:43:42.407Z,9.30
2019-03-04T10:47:47.828Z,9.28
2019-03-04T10:51:53.354Z,9.21
2019-03-04T10:55:58.855Z,9.15
2019-03-04T11:00:06.939Z,6.40
2019-03-04T11:04:12.528Z,6.24
2019-03-04T11:08:18.499Z,6.01
2019-03-04T11:12:24.466Z,6.22
2019-03-04T11:16:29.962Z,6.36
2019-03-04T11:20:35.621Z,6.25
2019-03-04T11:24:41.598Z,6.10
2019-03-04T11:28:47.109Z,6.26
2019-03-04T11:32:52.567Z,6.09
2019-03-04T11:37:01.222Z,6.08
2019-03-04T11:41:07.775Z,6.21
2019-03-04T11:45:16.247Z,6.51
2019-03-04T11:49:31.704Z,6.45
2019-03-04T11:53:37.195Z,6.36
2019-03-04T11:57:42.632Z,6.40
2019-03-04T12:01:49.776Z,6.18
2019-03-04T12:05:55.492Z,6.35
2019-03-04T12:10:00.829Z,6.17
2019-03-04T12:14:06.409Z,6.47
2019-03-04T12:18:11.828Z,6.60
2019-03-04T12:22:17.645Z,6.56
2019-03-04T12:26:23.170Z,6.53
2019-03-04T12:30:30.983Z,7.44
2019-03-04T12:34:36.885Z,7.18
2019-03-04T12:38:42.422Z,6.94
2019-03-04T12:42:47.887Z,7.12
2019-03-04T12:46:53.422Z,7.10
2019-03-04T12:50:59.771Z,7.47
2019-03-04T12:55:06.581Z,7.39
2019-03-04T12:59:12.059Z,7.45
2019-03-04T13:03:24.268Z,7.35
2019-03-04T13:07:29.730Z,7.25
2019-03-04T13:11:38.452Z,7.21
2019-03-04T13:15:56.022Z,7.11
2019-03-04T13:20:02.181Z,7.26
2019-03-04T13:24:08.396Z,7.42
2019-03-04T13:28:14.109Z,7.73
2019-03-04T13:32:19.991Z,7.78
2019-03-04T13:36:25.918Z,7.79
2019-03-04T13:40:31.785Z,7.75
2019-03-04T13:44:57.725Z,7.80
2019-03-04T13:49:03.883Z,7.76
2019-03-04T13:53:10.068Z,8.28
2019-03-04T13:57:16.141Z,8.28
2019-03-04T14:01:21.882Z,8.32
2019-03-04T14:05:28.414Z,8.90
2019-03-04T14:09:34.210Z,8.83
2019-03-04T14:13:40.407Z,8.85
2019-03-04T14:17:46.348Z,8.47
2019-03-04T14:21:53.092Z,8.93
2019-03-04T14:25:59.178Z,8.97
2019-03-04T14:30:05.318Z,8.81
2019-03-04T14:34:11.161Z,9.80
2019-03-04T14:38:16.918Z,9.44
2019-03-04T14:42:22.810Z,9.21
2019-03-04T14:46:28.711Z,9.32
2019-03-04T14:50:34.502Z,9.94
2019-03-04T14:54:40.277Z,9.41
2019-03-04T14:58:46.025Z,9.32
2019-03-04T15:02:51.814Z,8.90
2019-03-04T15:06:57.501Z,8.77
2019-03-04T15:11:03.285Z,8.78
2019-03-04T15:15:09.574Z,8.97
2019-03-04T15:19:15.383Z,8.96
2019-03-04T15:23:21.588Z,8.94
2019-03-04T15:27:27.709Z,8.91
2019-03-04T15:31:34.122Z,9.03
2019-03-04T15:35:40.196Z,9.29
2019-03-04T15:39:46.031Z,8.97
2019-03-04T15:43:52.051Z,9.15
2019-03-04T15:47:58.572Z,9.24
2019-03-04T15:52:04.298Z,8.92
2019-03-04T15:56:10.173Z,8.87
2019-03-04T16:00:16.557Z,8.90
2019-03-04T16:04:26.752Z,8.88
2019-03-04T16:08:32.775Z,9.13
2019-03-04T16:12:38.609Z,9.00
2019-03-04T16:16:44.407Z,8.86
2019-03-04T16:20:50.263Z,8.73
2019-03-04T16:24:57.034Z,8.69
2019-03-04T16:29:02.885Z,8.55
2019-03-04T16:33:08.841Z,8.38
2019-03-04T16:37:14.688Z,8.36
2019-03-04T16:41:20.680Z,8.25
2019-03-04T16:45:26.735Z,8.12
2019-03-04T16:49:33.233Z,7.91
2019-03-04T16:53:39.066Z,7.85
2019-03-04T16:57:45.008Z,7.78
2019-03-04T17:01:50.915Z,7.72
2019-03-04T17:05:56.669Z,7.66
2019-03-04T17:10:02.454Z,7.58
2019-03-04T17:14:08.324Z,7.49
2019-03-04T17:18:14.232Z,7.48
2019-03-04T17:22:20.571Z,7.39
2019-03-04T17:26:26.372Z,7.32
2019-03-04T17:30:32.211Z,7.25
2019-03-04T17:34:39.153Z,7.21
2019-03-04T17:38:45.796Z,7.20
2019-03-04T17:42:52.471Z,7.14
2019-03-04T17:46:58.451Z,7.20
2019-03-04T17:51:06.205Z,7.09
2019-03-04T17:55:13.369Z,7.05
2019-03-04T17:59:19.308Z,7.11
2019-03-04T18:03:25.413Z,7.21
2019-03-04T18:07:31.109Z,7.19
2019-03-04T18:11:37.085Z,6.83
2019-03-04T18:15:42.987Z,6.87
2019-03-04T18:19:48.714Z,6.69
2019-03-04T18:23:54.645Z,6.79
2019-03-04T18:28:06.874Z,6.81
2019-03-04T18:33:27.965Z,6.64
2019-03-04T18:38:22.326Z,6.69
2019-03-04T18:43:11.638Z,6.63
2019-03-04T18:48:10.618Z,6.44
2019-03-04T18:52:16.366Z,6.48
2019-03-04T18:56:22.931Z,6.28
2019-03-04T19:00:28.891Z,6.49
2019-03-04T19:04:34.648Z,6.36
2019-03-04T19:08:40.384Z,6.64
2019-03-04T19:12:46.167Z,6.50
2019-03-04T19:16:51.942Z,6.55
2019-03-04T19:20:59.040Z,6.63
2019-03-04T19:25:04.978Z,6.47
2019-03-04T19:29:10.903Z,6.52
2019-03-04T19:33:16.794Z,6.48
2019-03-04T19:37:22.672Z,6.49
2019-03-04T19:41:28.515Z,6.40
2019-03-04T19:45:34.323Z,6.26
2019-03-04T19:49:40.097Z,6.36
2019-03-04T19:53:46.017Z,6.34
2019-03-04T19:57:51.724Z,6.19
2019-03-04T20:01:57.625Z,6.25
2019-03-04T20:06:05.874Z,6.06
2019-03-04T20:10:12.533Z,6.07
2019-03-04T20:14:18.847Z,6.08
2019-03-04T20:18:24.658Z,6.06
2019-03-04T20:22:30.777Z,6.18
2019-03-04T20:26:37.061Z,6.33
2019-03-04T20:30:47.389Z,6.36
2019-03-04T20:35:00.376Z,6.39
2019-03-04T20:39:10.506Z,6.39
2019-03-04T20:43:16.618Z,6.62
2019-03-04T20:47:22.447Z,6.63
2019-03-04T20:51:32.852Z,6.74
2019-03-04T20:55:38.422Z,6.45
2019-03-04T20:59:44.302Z,5.89
2019-03-04T21:03:50.217Z,5.31
2019-03-04T21:08:32.695Z,4.91
2019-03-04T21:12:38.612Z,4.76
2019-03-04T21:22:09.039Z,4.66
2019-03-04T21:26:39.141Z,4.74
2019-03-04T21:31:47.884Z,4.82
2019-03-04T21:36:49.033Z,4.85
2019-03-04T21:41:32.993Z,4.94
2019-03-04T21:46:31.107Z,5.06
2019-03-04T21:51:20.125Z,5.06
2019-03-04T21:55:38.586Z,5.02
2019-03-04T21:59:43.983Z,5.18
2019-03-04T22:03:50.182Z,5.20
2019-03-04T22:07:55.649Z,5.23
2019-03-04T22:12:01.207Z,5.23
2019-03-04T22:16:06.795Z,5.31
2019-03-04T22:20:12.525Z,5.35
2019-03-04T22:24:18.081Z,5.45
2019-03-04T22:28:23.876Z,5.43
2019-03-04T22:32:29.345Z,5.50
2019-03-04T22:37:11.150Z,5.60
2019-03-04T22:41:16.656Z,5.71
2019-03-04T22:45:22.119Z,5.68
2019-03-04T22:49:27.586Z,5.78
2019-03-04T22:53:32.946Z,5.87
2019-03-04T22:57:38.660Z,5.92
2019-03-04T23:02:00.806Z,5.93
2019-03-04T23:06:06.695Z,6.11
2019-03-04T23:10:29.174Z,6.18
2019-03-04T23:14:34.816Z,6.04
2019-03-04T23:18:40.238Z,6.17
2019-03-04T23:22:46.191Z,6.16
2019-03-04T23:26:51.606Z,6.17
2019-03-04T23:30:59.801Z,6.17
2019-03-04T23:35:04.399Z,6.08
2019-03-04T23:39:10.247Z,5.91
2019-03-04T23:43:15.950Z,5.93
2019-03-04T23:47:21.391Z,5.89
2019-03-04T23:51:26.843Z,5.86
2019-03-04T23:55:32.265Z,5.73
2019-03-04T23:59:37.733Z,5.68
